Time;durP1;ratioP1;P1;durP2;ratioP2;P2;SDS_P1;SDS_P2;PMS_P1;PMS_P2;Temp;Humidity;BMP_temperature;BMP_pressure;BME280_temperature;BME280_humidity;BME280_pressure;Samples;Min_cycle;Max_cycle;Signal;HPM_P1;HPM_P2
2022/02/19 00:01:45;;;;;;;7.43;1.08;;;;;;;;;;5071645;28;20024;-47
2022/02/19 00:04:11;;;;;;;7.57;1.45;;;;;;;;;;5072056;28;20072;-47
2022/02/19 00:06:38;;;;;;;7.13;1.60;;;;;;;;;;5071849;28;20056;-47
2022/02/19 00:09:04;;;;;;;4.90;1.60;;;;;;;;;;5075455;28;20024;-47
2022/02/19 00:11:30;;;;;;;4.90;1.45;;;;;;;;;;5075575;28;20108;-48
2022/02/19 00:13:57;;;;;;;6.50;1.70;;;;;;;;;;5075440;28;20086;-49
2022/02/19 00:16:23;;;;;;;8.02;2.50;;;;;;;;;;5075412;28;20124;-47
2022/02/19 00:18:49;;;;;;;3.72;1.40;;;;;;;;;;5075384;28;20033;-47
2022/02/19 00:21:15;;;;;;;9.10;2.00;;;;;;;;;;5075477;28;20044;-47
2022/02/19 00:23:42;;;;;;;7.50;1.40;;;16.70;90.00;;;;;;5075697;28;20031;-46
2022/02/19 00:26:07;;;;;;;7.38;1.75;;;;;;;;;;5075568;28;20062;-45
2022/02/19 00:28:34;;;;;;;5.07;1.27;;;;;;;;;;5075243;28;20107;-46
2022/02/19 00:31:00;;;;;;;3.88;1.48;;;;;;;;;;5075241;28;20036;-46
2022/02/19 00:33:27;;;;;;;6.22;1.27;;;;;;;;;;5075139;28;20029;-46
2022/02/19 00:35:53;;;;;;;8.07;1.73;;;;;;;;;;5075058;28;20562;-46
2022/02/19 00:38:20;;;;;;;12.88;1.73;;;;;;;;;;5075166;28;20099;-47
2022/02/19 00:40:46;;;;;;;4.70;1.30;;;;;;;;;;5075342;28;20425;-46
2022/02/19 00:43:12;;;;;;;5.95;1.15;;;;;;;;;;5075081;28;20025;-46
2022/02/19 00:45:38;;;;;;;8.25;2.85;;;;;;;;;;5074980;28;20029;-47
2022/02/19 00:48:04;;;;;;;5.18;1.08;;;;;;;;;;5074957;28;20104;-46
2022/02/19 00:50:31;;;;;;;5.97;1.50;;;;;;;;;;5074936;28;20108;-46
2022/02/19 00:52:57;;;;;;;4.43;1.20;;;;;;;;;;5074909;28;20025;-46
2022/02/19 00:55:23;;;;;;;3.63;1.58;;;;;;;;;;5074780;28;20068;-46
2022/02/19 00:57:49;;;;;;;4.75;1.50;;;;;;;;;;5075016;28;20442;-45
2022/02/19 01:00:15;;;;;;;6.40;2.05;;;;;;;;;;5075065;28;20033;-46
2022/02/19 01:02:42;;;;;;;4.70;1.15;;;;;;;;;;5074450;28;20075;-47
2022/02/19 01:05:08;;;;;;;6.13;1.70;;;;;;;;;;5074658;28;20027;-45
2022/02/19 01:07:34;;;;;;;4.30;1.23;;;;;;;;;;5074634;28;20069;-45
2022/02/19 01:10:00;;;;;;;6.03;1.67;;;;;;;;;;5074855;28;20420;-45
2022/02/19 01:12:26;;;;;;;5.28;1.55;;;;;;;;;;5074776;28;20029;-46
2022/02/19 01:14:53;;;;;;;6.93;1.65;;;;;;;;;;5074346;28;20040;-46
2022/02/19 01:17:19;;;;;;;5.05;1.55;;;;;;;;;;5074522;28;20036;-46
2022/02/19 01:19:45;;;;;;;6.30;1.52;;;;;;;;;;5074296;28;20099;-46
2022/02/19 01:22:11;;;;;;;3.42;1.30;;;;;;;;;;5074285;28;20055;-46
2022/02/19 01:24:37;;;;;;;3.65;1.25;;;;;;;;;;5074306;28;20028;-45
2022/02/19 01:27:03;;;;;;;5.88;1.67;;;;;;;;;;5074284;28;20127;-46
2022/02/19 01:29:29;;;;;;;5.68;1.83;;;;;;;;;;5074199;28;20056;-46
2022/02/19 01:31:55;;;;;;;4.32;1.10;;;;;;;;;;5074112;28;20032;-47
2022/02/19 01:34:22;;;;;;;3.70;1.17;;;;;;;;;;5074049;28;20032;-46
2022/02/19 01:36:48;;;;;;;4.82;1.40;;;;;;;;;;5074049;28;20521;-47
2022/02/19 01:39:14;;;;;;;3.50;1.10;;;;;;;;;;5073998;28;20029;-46
2022/02/19 01:41:41;;;;;;;3.45;0.82;;;;;;;;;;5073958;28;20391;-46
2022/02/19 01:44:07;;;;;;;4.45;1.40;;;;;;;;;;5073871;28;20035;-46
2022/02/19 01:46:34;;;;;;;5.30;1.50;;;16.30;92.30;;;;;;5073838;28;20085;-46
2022/02/19 01:49:00;;;;;;;4.38;1.10;;;;;;;;;;5073775;28;20025;-46
2022/02/19 01:51:30;;;;;;;5.75;1.38;;;16.40;90.80;;;;;;5073713;28;20048;-46
2022/02/19 01:53:56;;;;;;;5.93;1.65;;;;;;;;;;5073724;28;20504;-45
2022/02/19 01:56:22;;;;;;;3.53;1.27;;;;;;;;;;5073629;28;20402;-46
2022/02/19 01:58:48;;;;;;;4.90;1.13;;;;;;;;;;5073525;28;20055;-47
2022/02/19 02:01:14;;;;;;;5.78;1.38;;;;;;;;;;5073512;28;20102;-46
2022/02/19 02:03:40;;;;;;;6.78;1.58;;;;;;;;;;5073209;28;20041;-46
2022/02/19 02:06:06;;;;;;;6.40;1.52;;;;;;;;;;5073424;28;20101;-47
2022/02/19 02:08:32;;;;;;;6.57;1.33;;;;;;;;;;5073359;28;20024;-47
2022/02/19 02:11:02;;;;;;;4.05;1.02;;;16.30;92.70;;;;;;5073287;28;20036;-46
2022/02/19 02:13:28;;;;;;;6.70;1.05;;;;;;;;;;5073373;28;20020;-46
2022/02/19 02:15:54;;;;;;;6.18;1.40;;;;;;;;;;5073062;28;20128;-49
2022/02/19 02:18:20;;;;;;;3.38;1.08;;;;;;;;;;5073269;28;20042;-50
2022/02/19 02:20:46;;;;;;;3.10;1.10;;;;;;;;;;5073140;28;20033;-50
2022/02/19 02:23:14;;;;;;;5.75;1.30;;;;;;;;;;5073058;28;20024;-48
2022/02/19 02:25:40;;;;;;;4.75;1.30;;;;;;;;;;5073294;28;20033;-49
2022/02/19 02:28:11;;;;;;;3.65;1.10;;;16.20;92.50;;;;;;5072981;28;20024;-49
2022/02/19 02:30:37;;;;;;;3.50;1.00;;;;;;;;;;5072665;28;20024;-49
2022/02/19 02:33:12;;;;;;;4.55;1.15;;;16.20;89.20;;;;;;5072915;28;20033;-46
2022/02/19 02:35:38;;;;;;;5.00;1.30;;;;;;;;;;5072804;28;20048;-46
2022/02/19 02:38:04;;;;;;;5.85;1.17;;;;;;;;;;5072840;28;20050;-46
2022/02/19 02:40:31;;;;;;;3.53;1.33;;;16.20;92.60;;;;;;5072864;28;20111;-47
2022/02/19 02:42:57;;;;;;;3.97;1.10;;;;;;;;;;5072766;28;20044;-46
2022/02/19 02:45:24;;;;;;;3.30;1.13;;;;;;;;;;5072755;28;20024;-46
2022/02/19 02:47:49;;;;;;;4.95;1.30;;;;;;;;;;5072691;28;20134;-46
2022/02/19 02:50:15;;;;;;;3.03;1.10;;;;;;;;;;5072779;28;20486;-47
2022/02/19 02:52:41;;;;;;;4.50;1.17;;;;;;;;;;5072630;28;20032;-48
2022/02/19 02:55:08;;;;;;;2.63;1.08;;;16.10;90.00;;;;;;5072506;28;20035;-48
2022/02/19 02:57:35;;;;;;;4.80;1.38;;;16.10;89.30;;;;;;5072861;28;20360;-47
2022/02/19 03:00:01;;;;;;;4.25;1.35;;;;;;;;;;5072610;28;20031;-48
2022/02/19 03:02:29;;;;;;;4.82;1.25;;;;;;;;;;5072319;28;20050;-47
2022/02/19 03:04:56;;;;;;;4.30;1.27;;;;;;;;;;5072476;28;20050;-47
2022/02/19 03:07:22;;;;;;;4.70;1.15;;;;;;;;;;5072738;28;20406;-48
2022/02/19 03:09:47;;;;;;;6.13;0.90;;;;;;;;;;5072414;28;20100;-46
2022/02/19 03:12:13;;;;;;;4.40;1.02;;;;;;;;;;5072408;28;20483;-46
2022/02/19 03:14:39;;;;;;;2.33;0.93;;;;;;;;;;5072297;28;20045;-47
2022/02/19 03:17:05;;;;;;;6.10;1.42;;;;;;;;;;5072307;28;20033;-46
2022/02/19 03:19:31;;;;;;;3.97;0.93;;;;;;;;;;5072334;28;20051;-47
2022/02/19 03:21:57;;;;;;;4.75;1.00;;;;;;;;;;5072314;28;20475;-46
2022/02/19 03:24:23;;;;;;;4.55;1.42;;;;;;;;;;5072242;28;20036;-46
2022/02/19 03:26:49;;;;;;;2.90;0.85;;;;;;;;;;5072295;28;20103;-46
2022/02/19 03:29:15;;;;;;;4.20;1.27;;;;;;;;;;5072462;28;20028;-46
2022/02/19 03:31:41;;;;;;;3.85;0.90;;;;;;;;;;5072184;28;20028;-46
2022/02/19 03:34:07;;;;;;;5.53;1.05;;;;;;;;;;5072128;28;20036;-46
2022/02/19 03:36:33;;;;;;;5.75;1.38;;;;;;;;;;5072161;28;20032;-47
2022/02/19 03:38:59;;;;;;;5.60;1.60;;;;;;;;;;5072166;28;20029;-46
2022/02/19 03:41:25;;;;;;;6.28;1.52;;;;;;;;;;5072103;28;20041;-45
2022/02/19 03:43:51;;;;;;;3.78;0.82;;;;;;;;;;5075372;28;20078;-45
2022/02/19 03:46:17;;;;;;;3.80;1.17;;;;;;;;;;5076203;28;20471;-46
2022/02/19 03:48:46;;;;;;;3.92;1.30;;;;;;;;;;5076135;28;20036;-46
2022/02/19 03:51:12;;;;;;;3.58;1.13;;;;;;;;;;5076034;28;20107;-46
2022/02/19 03:53:38;;;;;;;4.13;1.55;;;;;;;;;;5075972;28;20521;-46
2022/02/19 03:56:04;;;;;;;3.85;1.10;;;;;;;;;;5075911;28;20090;-46
2022/02/19 03:58:30;;;;;;;2.70;0.90;;;;;;;;;;5075855;28;20360;-46
2022/02/19 04:00:56;;;;;;;4.82;1.10;;;;;;;;;;5075853;28;20541;-45
2022/02/19 04:03:22;;;;;;;4.63;1.48;;;;;;;;;;5074688;28;20131;-45
2022/02/19 04:05:48;;;;;;;5.60;1.08;;;;;;;;;;5074461;28;20159;-46
2022/02/19 04:08:14;;;;;;;5.40;1.35;;;;;;;;;;5074416;28;20028;-46
2022/02/19 04:10:40;;;;;;;6.68;1.40;;;;;;;;;;5074384;28;20480;-46
2022/02/19 04:13:06;;;;;;;6.72;1.13;;;;;;;;;;5074370;28;20071;-47
2022/02/19 04:15:32;;;;;;;2.72;0.82;;;;;;;;;;5074218;28;20036;-47
2022/02/19 04:17:59;;;;;;;4.03;1.10;;;;;;;;;;5074310;28;20055;-45
2022/02/19 04:20:25;;;;;;;6.38;1.27;;;;;;;;;;5074298;28;20115;-46
2022/02/19 04:22:51;;;;;;;3.22;1.20;;;;;;;;;;5074549;28;20024;-46
2022/02/19 04:25:17;;;;;;;6.97;1.65;;;;;;;;;;5074299;28;20562;-46
2022/02/19 04:27:43;;;;;;;5.32;1.30;;;;;;;;;;5074183;28;20024;-46
2022/02/19 04:30:10;;;;;;;2.20;0.95;;;;;;;;;;5074143;28;20479;-46
2022/02/19 04:32:36;;;;;;;3.05;1.33;;;;;;;;;;5074041;28;20029;-46
2022/02/19 04:35:02;;;;;;;3.72;1.30;;;;;;;;;;5073989;28;20033;-46
2022/02/19 04:37:28;;;;;;;4.15;1.25;;;;;;;;;;5073983;28;20417;-46
2022/02/19 04:39:54;;;;;;;4.55;1.25;;;;;;;;;;5074027;28;20039;-46
2022/02/19 04:42:20;;;;;;;3.42;0.80;;;;;;;;;;5073929;28;20028;-46
2022/02/19 04:44:46;;;;;;;5.97;1.60;;;;;;;;;;5073802;28;20040;-46
2022/02/19 04:47:12;;;;;;;4.65;1.38;;;;;;;;;;5073873;28;20032;-46
2022/02/19 04:49:38;;;;;;;4.10;1.08;;;;;;;;;;5073753;28;20028;-46
2022/02/19 04:52:04;;;;;;;3.72;1.00;;;;;;;;;;5073851;28;20032;-46
2022/02/19 04:54:30;;;;;;;3.40;1.02;;;;;;;;;;5073217;28;20102;-46
2022/02/19 04:56:56;;;;;;;4.28;1.58;;;;;;;;;;5073751;28;20087;-46
2022/02/19 04:59:22;;;;;;;4.65;1.20;;;;;;;;;;5073813;28;20031;-45
2022/02/19 05:01:48;;;;;;;1.50;0.80;;;;;;;;;;5036720;28;1046476;-45
2022/02/19 05:04:14;;;;;;;4.05;1.27;;;;;;;;;;5075030;28;20052;-46
2022/02/19 05:06:40;;;;;;;3.90;1.15;;;;;;;;;;5074908;28;20029;-45
2022/02/19 05:09:06;;;;;;;3.63;0.95;;;;;;;;;;5074620;28;20441;-46
2022/02/19 05:11:32;;;;;;;4.05;0.98;;;;;;;;;;5074559;28;20035;-48
2022/02/19 05:13:58;;;;;;;3.83;1.10;;;;;;;;;;5074499;28;20029;-45
2022/02/19 05:16:24;;;;;;;3.92;0.75;;;;;;;;;;5074475;28;20398;-46
2022/02/19 05:18:50;;;;;;;3.65;1.40;;;;;;;;;;5074730;28;20444;-45
2022/02/19 05:21:16;;;;;;;5.55;1.23;;;;;;;;;;5074397;28;20067;-46
2022/02/19 05:23:42;;;;;;;4.22;1.17;;;;;;;;;;5074254;28;20032;-46
2022/02/19 05:26:08;;;;;;;3.92;1.15;;;;;;;;;;5074307;28;20069;-46
2022/02/19 05:28:34;;;;;;;5.25;1.20;;;;;;;;;;5074201;28;20115;-46
2022/02/19 05:31:02;;;;;;;3.63;0.75;;;;;;;;;;5074197;28;20479;-47
2022/02/19 05:33:28;;;;;;;2.13;0.80;;;;;;;;;;5074144;28;20028;-46
2022/02/19 05:35:54;;;;;;;2.85;0.98;;;;;;;;;;5074328;28;20039;-48
2022/02/19 05:38:20;;;;;;;3.25;1.30;;;;;;;;;;5074060;28;20533;-48
2022/02/19 05:40:46;;;;;;;2.83;1.00;;;;;;;;;;5073988;28;20032;-47
2022/02/19 05:43:12;;;;;;;2.38;1.10;;;;;;;;;;5073963;28;20032;-48
2022/02/19 05:45:38;;;;;;;2.92;0.85;;;;;;;;;;5073908;28;20028;-47
2022/02/19 05:48:04;;;;;;;2.55;1.10;;;;;;;;;;5073802;28;20127;-48
2022/02/19 05:50:30;;;;;;;3.72;1.10;;;;;;;;;;5073734;28;20039;-47
2022/02/19 05:52:56;;;;;;;4.22;1.10;;;;;;;;;;5073699;28;20115;-47
2022/02/19 05:55:22;;;;;;;5.63;1.40;;;;;;;;;;5073675;28;20039;-48
2022/02/19 05:57:48;;;;;;;4.85;1.27;;;;;;;;;;5073516;28;20032;-48
2022/02/19 06:00:15;;;;;;;3.92;0.98;;;;;;;;;;5073863;28;20032;-47
2022/02/19 06:02:41;;;;;;;3.55;0.93;;;;;;;;;;5073308;28;20043;-47
2022/02/19 06:05:07;;;;;;;4.57;0.85;;;;;;;;;;5072689;28;20107;-48
2022/02/19 06:07:33;;;;;;;4.85;1.10;;;;;;;;;;5073419;28;20029;-48
2022/02/19 06:09:59;;;;;;;3.95;1.27;;;;;;;;;;5073363;28;20024;-48
2022/02/19 06:12:25;;;;;;;3.28;1.08;;;;;;;;;;5073711;28;20051;-49
2022/02/19 06:14:51;;;;;;;2.95;1.40;;;;;;;;;;5073203;28;20433;-47
2022/02/19 06:17:17;;;;;;;2.95;1.05;;;;;;;;;;5073309;28;20055;-48
2022/02/19 06:19:43;;;;;;;1.90;0.98;;;;;;;;;;5073221;28;20028;-47
2022/02/19 06:22:09;;;;;;;4.63;1.00;;;;;;;;;;5073357;28;20060;-47
2022/02/19 06:24:36;;;;;;;5.45;1.20;;;;;;;;;;5073190;28;20036;-47
2022/02/19 06:27:04;;;;;;;2.38;0.80;;;;;;;;;;5072971;28;20491;-48
2022/02/19 06:29:30;;;;;;;4.68;1.15;;;;;;;;;;5073164;28;20035;-48
2022/02/19 06:31:56;;;;;;;3.17;1.00;;;;;;;;;;5073367;28;20118;-47
2022/02/19 06:34:22;;;;;;;3.95;1.02;;;;;;;;;;5072886;28;20036;-47
2022/02/19 06:36:48;;;;;;;3.97;1.40;;;;;;;;;;5072862;28;20029;-48
2022/02/19 06:39:14;;;;;;;4.65;1.45;;;;;;;;;;5073169;28;20063;-47
2022/02/19 06:41:40;;;;;;;6.38;1.17;;;;;;;;;;5072761;28;20074;-47
2022/02/19 06:44:06;;;;;;;4.65;1.08;;;;;;;;;;5072730;28;20100;-48
2022/02/19 06:46:32;;;;;;;2.35;1.00;;;;;;;;;;5072741;28;20040;-48
2022/02/19 06:48:58;;;;;;;5.93;1.38;;;;;;;;;;5072682;28;20040;-48
2022/02/19 06:51:25;;;;;;;4.97;1.23;;;;;;;;;;5072682;28;20021;-47
2022/02/19 06:53:56;;;;;;;5.28;1.27;;;;;;;;;;5072642;28;20510;-48
2022/02/19 06:56:25;;;;;;;;;;;15.50;89.00;;;;;;5073199;28;20044;-48
2022/02/19 06:58:51;;;;;;;2.55;0.90;;;;;;;;;;5072544;28;19904;-48
2022/02/19 07:01:17;;;;;;;4.28;1.00;;;;;;;;;;5072822;28;20085;-47
2022/02/19 07:03:43;;;;;;;3.53;1.10;;;;;;;;;;5072332;28;20083;-47
2022/02/19 07:06:09;;;;;;;5.25;1.17;;;;;;;;;;5072519;28;20028;-49
2022/02/19 07:08:35;;;;;;;2.25;1.02;;;;;;;;;;5072827;28;20025;-48
2022/02/19 07:11:02;;;;;;;2.00;0.88;;;;;;;;;;5072398;28;20486;-47
2022/02/19 07:13:28;;;;;;;4.90;1.20;;;;;;;;;;5072645;28;20032;-48
2022/02/19 07:15:54;;;;;;;3.75;0.93;;;;;;;;;;5072249;28;20046;-48
2022/02/19 07:18:20;;;;;;;3.55;1.20;;;;;;;;;;5072153;28;20052;-48
2022/02/19 07:20:47;;;;;;;2.83;0.80;;;;;;;;;;5072239;28;20077;-47
2022/02/19 07:23:13;;;;;;;2.55;1.00;;;;;;;;;;5072543;28;20097;-47
2022/02/19 07:25:40;;;;;;;4.65;1.10;;;;;;;;;;5072369;28;20064;-47
2022/02/19 07:28:06;;;;;;;4.60;1.13;;;;;;;;;;5072204;28;20112;-47
2022/02/19 07:30:34;;;;;;;3.45;1.02;;;15.70;91.30;;;;;;5072505;28;20425;-48
2022/02/19 07:33:00;;;;;;;3.45;0.80;;;;;;;;;;5072437;28;20024;-48
2022/02/19 07:35:26;;;;;;;2.35;1.15;;;;;;;;;;5072051;28;20036;-47
2022/02/19 07:37:53;;;;;;;3.85;1.30;;;;;;;;;;5072080;28;20028;-47
2022/02/19 07:40:19;;;;;;;5.07;1.50;;;;;;;;;;5072124;28;20395;-48
2022/02/19 07:42:45;;;;;;;1.95;0.90;;;;;;;;;;5072203;28;20024;-47
2022/02/19 07:45:11;;;;;;;5.57;1.15;;;;;;;;;;5072123;28;20040;-49
2022/02/19 07:47:37;;;;;;;3.63;1.25;;;;;;;;;;5072030;28;20029;-47
2022/02/19 07:58:22;;;;;;;4.25;1.20;;;;;;;;;;5071973;28;20061;-49
2022/02/19 08:00:59;;;;;;;2.30;0.88;;;15.50;90.00;;;;;;5072118;28;20390;-47
2022/02/19 08:03:26;;;;;;;3.28;1.05;;;15.40;91.60;;;;;;5071688;28;20134;-48
2022/02/19 08:05:53;;;;;;;1.73;0.75;;;;;;;;;;5072113;28;20032;-47
2022/02/19 08:08:19;;;;;;;3.95;1.02;;;;;;;;;;5071777;28;20028;-47
2022/02/19 08:10:48;;;;;;;4.15;1.20;;;;;;;;;;5071759;28;20039;-47
2022/02/19 08:13:15;;;;;;;3.70;0.80;;;15.40;92.70;;;;;;5053751;28;20489;-48
2022/02/19 08:15:42;;;;;;;4.90;0.90;;;;;;;;;;5071596;28;20032;-48
2022/02/19 08:18:10;;;;;;;5.32;1.10;;;15.50;92.40;;;;;;5071723;28;20483;-48
2022/02/19 08:20:38;;;;;;;2.60;0.95;;;15.50;92.70;;;;;;5071671;28;20078;-48
2022/02/19 08:23:05;;;;;;;2.95;0.80;;;;;;;;;;5071620;28;20021;-47
2022/02/19 08:25:31;;;;;;;6.28;1.25;;;;;;;;;;5071591;28;20028;-47
2022/02/19 08:27:57;;;;;;;4.78;0.73;;;;;;;;;;5071666;28;20474;-47
2022/02/19 08:30:23;;;;;;;4.07;0.98;;;;;;;;;;5075297;28;20033;-47
2022/02/19 08:32:49;;;;;;;2.42;1.17;;;;;;;;;;5075213;28;20036;-47
2022/02/19 08:35:15;;;;;;;2.47;1.20;;;;;;;;;;5075162;28;20040;-47
2022/02/19 08:37:41;;;;;;;3.95;0.90;;;;;;;;;;5075205;28;20360;-47
2022/02/19 08:40:11;;;;;;;2.60;1.15;;;;;;;;;;5075182;28;20028;-48
2022/02/19 08:42:38;;;;;;;4.07;1.00;;;15.50;92.80;;;;;;5075226;28;20020;-47
2022/02/19 08:45:06;;;;;;;3.67;1.10;;;15.50;92.70;;;;;;5074954;28;20063;-48
2022/02/19 08:47:33;;;;;;;3.30;0.73;;;;;;;;;;5074800;28;20020;-48
2022/02/19 08:49:59;;;;;;;4.10;1.02;;;;;;;;;;5075204;28;20390;-48
2022/02/19 08:52:25;;;;;;;2.10;0.80;;;;;;;;;;5074844;28;20039;-48
2022/02/19 08:54:51;;;;;;;4.05;1.20;;;;;;;;;;5074525;28;20037;-48
2022/02/19 08:57:17;;;;;;;4.07;1.05;;;;;;;;;;5074771;28;20163;-47
2022/02/19 08:59:43;;;;;;;7.25;1.52;;;;;;;;;;5074741;28;20494;-48
2022/02/19 09:02:09;;;;;;;3.83;1.20;;;;;;;;;;5074432;28;20040;-49
2022/02/19 09:04:35;;;;;;;4.15;1.33;;;;;;;;;;5074586;28;20067;-48
2022/02/19 09:07:01;;;;;;;8.93;1.60;;;;;;;;;;5074636;28;20070;-48
2022/02/19 09:09:27;;;;;;;6.15;1.33;;;;;;;;;;5074580;28;20407;-49
2022/02/19 09:11:53;;;;;;;11.25;1.25;;;;;;;;;;5074452;28;20028;-49
2022/02/19 09:14:19;;;;;;;5.97;1.50;;;;;;;;;;5074579;28;20028;-48
2022/02/19 09:16:45;;;;;;;6.93;1.02;;;;;;;;;;5074431;28;20035;-50
2022/02/19 09:19:11;;;;;;;6.90;1.27;;;;;;;;;;5074342;28;20387;-50
2022/02/19 09:21:38;;;;;;;9.25;1.67;;;;;;;;;;5074289;28;20040;-50
2022/02/19 09:24:05;;;;;;;7.03;1.45;;;;;;;;;;5074224;28;20100;-50
2022/02/19 09:26:31;;;;;;;6.10;1.30;;;;;;;;;;5074015;28;20468;-49
2022/02/19 09:28:57;;;;;;;8.35;1.25;;;;;;;;;;5074147;28;20506;-49
2022/02/19 09:31:23;;;;;;;5.75;1.52;;;;;;;;;;5074177;28;20044;-49
2022/02/19 09:33:49;;;;;;;6.03;1.33;;;16.70;91.10;;;;;;5074043;28;20078;-50
2022/02/19 09:36:15;;;;;;;11.05;1.73;;;;;;;;;;5073825;28;20110;-49
2022/02/19 09:38:41;;;;;;;6.40;1.83;;;;;;;;;;5074074;28;20389;-48
2022/02/19 09:41:08;;;;;;;6.20;1.10;;;;;;;;;;5072922;28;20391;-50
2022/02/19 09:43:37;;;;;;;7.38;1.23;;;16.90;87.80;;;;;;5073884;28;20027;-49
2022/02/19 09:46:03;;;;;;;6.25;1.52;;;17.00;90.70;;;;;;5073779;28;20039;-48
2022/02/19 09:48:29;;;;;;;5.90;1.50;;;;;;;;;;5073815;28;20051;-49
2022/02/19 09:50:57;;;;;;;3.78;0.88;;;;;;;;;;5073722;28;20055;-51
2022/02/19 09:53:23;;;;;;;9.77;2.58;;;;;;;;;;5073850;28;20028;-49
2022/02/19 09:55:49;;;;;;;6.03;1.13;;;;;;;;;;5073553;28;20115;-49
2022/02/19 09:58:15;;;;;;;5.25;0.80;;;;;;;;;;5073668;28;20495;-50
2022/02/19 10:00:46;;;;;;;4.50;1.45;;;;;;;;;;5073516;28;20032;-50
2022/02/19 10:03:23;;;;;;;7.75;1.00;;;16.90;91.50;;;;;;5073401;28;20469;-51
2022/02/19 10:05:57;;;;;;;7.93;1.55;;;16.90;87.70;;;;;;5073477;28;20033;-50
2022/02/19 10:08:23;;;;;;;5.43;1.20;;;;;;;;;;5073414;28;20043;-50
2022/02/19 10:10:51;;;;;;;10.82;2.85;;;16.80;91.50;;;;;;5073378;28;20195;-50
2022/02/19 10:13:46;;;;;;;7.50;1.02;;;16.80;88.20;;;;;;5073268;28;20032;-51
2022/02/19 10:16:12;;;;;;;3.97;1.00;;;;;;;;;;5059770;28;20456;-52
2022/02/19 10:18:39;;;;;;;4.55;1.20;;;;;;;;;;5073177;28;20025;-50
2022/02/19 10:21:11;;;;;;;5.30;0.90;;;16.90;88.10;;;;;;5073323;28;20467;-48
2022/02/19 10:23:41;;;;;;;5.82;1.52;;;;;;;;;;5073140;28;20017;-49
2022/02/19 10:26:07;;;;;;;;;;;16.70;87.60;;;;;;5073455;28;20024;-50
2022/02/19 10:28:33;;;;;;;6.30;1.45;;;;;;;;;;5073093;28;20373;-52
2022/02/19 10:31:15;;;;;;;3.65;1.23;;;16.70;87.70;;;;;;5072973;28;20103;-50
2022/02/19 10:33:42;;;;;;;5.80;1.08;;;;;;;;;;5072950;28;20035;-48
2022/02/19 10:36:54;;;;;;;4.50;1.08;;;16.60;87.70;;;;;;5072699;28;20040;-50
2022/02/19 10:39:31;;;;;;;4.22;1.10;;;16.60;87.50;;;;;;5072777;28;20039;-50
2022/02/19 10:42:05;;;;;;;6.70;1.17;;;16.60;91.40;;;;;;5072579;28;20028;-51
2022/02/19 10:44:33;;;;;;;8.35;1.23;;;16.60;91.40;;;;;;5072765;28;20029;-50
2022/02/19 10:47:20;;;;;;;6.28;1.00;;;16.60;87.70;;;;;;5072945;28;20024;-50
2022/02/19 10:50:11;;;;;;;4.90;1.42;;;16.50;87.60;;;;;;5072759;28;20067;-51
2022/02/19 10:52:40;;;;;;;4.68;1.17;;;16.50;91.50;;;;;;5072068;28;20385;-50
2022/02/19 10:55:09;;;;;;;3.88;1.10;;;16.50;91.40;;;;;;5072369;28;20062;-50
2022/02/19 10:57:41;;;;;;;4.63;1.10;;;16.50;87.80;;;;;;5072710;28;20031;-50
2022/02/19 11:00:16;;;;;;;5.38;1.25;;;16.50;87.80;;;;;;5072341;28;20036;-49
2022/02/19 11:02:44;;;;;;;6.45;1.23;;;16.50;91.40;;;;;;5071987;28;20048;-51
2022/02/19 11:05:11;;;;;;;3.90;1.10;;;16.40;90.40;;;;;;5072236;28;20024;-50
2022/02/19 11:07:38;;;;;;;4.18;0.82;;;;;;;;;;5072259;28;20395;-48
2022/02/19 11:10:05;;;;;;;4.40;1.10;;;16.50;91.00;;;;;;5072153;28;20036;-50
2022/02/19 11:12:31;;;;;;;5.28;1.30;;;;;;;;;;5072167;28;20033;-49
2022/02/19 11:14:58;;;;;;;4.93;1.27;;;;;;;;;;5072081;28;20033;-51
2022/02/19 11:17:24;;;;;;;7.13;1.73;;;;;;;;;;5072125;28;20541;-50
2022/02/19 11:20:08;;;;;;;8.25;1.77;;;16.60;86.50;;;;;;5071988;28;20064;-49
2022/02/19 11:22:35;;;;;;;8.35;1.73;;;;;;;;;;5072046;28;20024;-50
2022/02/19 11:25:04;;;;;;;5.55;1.27;;;16.60;91.00;;;;;;5072002;28;20498;-51
2022/02/19 11:27:44;;;;;;;6.90;1.30;;;16.60;91.00;;;;;;5072267;28;20025;-50
2022/02/19 11:30:10;;;;;;;;;;;16.60;87.40;;;;;;5072770;28;20024;-49
2022/02/19 11:32:38;;;;;;;8.23;1.33;;;16.60;91.00;;;;;;5071972;28;19911;-50
2022/02/19 11:35:05;;;;;;;2.97;0.90;;;16.60;90.90;;;;;;5072422;28;20102;-50
2022/02/19 11:37:42;;;;;;;6.50;1.23;;;16.60;91.80;;;;;;5071845;28;20031;-50
2022/02/19 11:40:13;;;;;;;8.23;1.45;;;16.40;88.50;;;;;;5071920;28;20021;-52
2022/02/19 11:42:50;;;;;;;6.50;1.58;;;16.40;89.00;;;;;;5072374;28;20086;-52
2022/02/19 11:45:16;;;;;;;3.42;1.05;;;;;;;;;;5072297;28;20119;-51
2022/02/19 11:47:43;;;;;;;3.78;1.27;;;;;;;;;;5071959;28;20024;-50
2022/02/19 11:50:22;;;;;;;8.10;1.48;;;16.30;90.10;;;;;;5072313;28;20029;-50
2022/02/19 11:53:09;;;;;;;7.05;1.33;;;16.10;90.80;;;;;;5071901;28;20032;-50
2022/02/19 11:55:35;;;;;;;5.78;1.58;;;;;;;;;;5072090;28;20098;-51
2022/02/19 11:58:07;;;;;;;6.78;1.60;;;16.40;94.60;;;;;;5072230;28;20021;-50
2022/02/19 12:00:46;;;;;;;6.47;1.48;;;16.40;92.40;;;;;;5071941;28;20033;-47
2022/02/19 12:03:22;;;;;;;4.27;1.03;;;16.50;92.80;;;;;;5072099;28;20515;-46
2022/02/19 12:06:16;;;;;;;6.57;1.55;;;16.50;92.80;;;;;;5076071;28;20040;-47
2022/02/19 12:08:48;;;;;;;5.00;1.45;;;16.60;93.10;;;;;;5076071;28;20028;-46
2022/02/19 12:11:18;;;;;;;6.38;1.10;;;16.60;93.30;;;;;;5075585;28;20028;-46
2022/02/19 12:13:55;;;;;;;6.78;1.42;;;16.70;95.90;;;;;;5075583;28;20171;-47
2022/02/19 12:16:30;;;;;;;7.03;1.33;;;16.80;93.70;;;;;;5075476;28;20090;-46
2022/02/19 12:19:03;;;;;;;7.95;1.48;;;16.80;93.70;;;;;;5075497;28;20033;-46
2022/02/19 12:21:41;;;;;;;8.15;1.77;;;16.80;93.80;;;;;;5075494;28;20036;-47
2022/02/19 12:24:11;;;;;;;7.80;1.33;;;16.80;93.90;;;;;;5075387;28;20029;-47
2022/02/19 12:27:08;;;;;;;6.75;1.13;;;16.80;93.90;;;;;;5075331;28;20071;-47
2022/02/19 12:29:36;;;;;;;9.25;1.30;;;16.80;96.50;;;;;;5075537;28;20033;-48
2022/02/19 12:32:06;;;;;;;6.50;1.38;;;16.90;94.10;;;;;;5075265;28;20069;-48
2022/02/19 12:34:47;;;;;;;6.28;1.17;;;16.80;96.50;;;;;;5075068;28;20028;-47
2022/02/19 12:37:14;;;;;;;5.97;1.20;;;;;;;;;;5075125;28;20029;-48
2022/02/19 12:39:42;;;;;;;4.00;1.10;;;16.80;96.80;;;;;;5075113;28;20024;-47
2022/02/19 12:42:14;;;;;;;6.47;1.40;;;16.80;96.90;;;;;;5075034;28;20086;-46
2022/02/19 12:44:40;;;;;;;5.93;1.73;;;;;;;;;;5075033;28;20028;-48
2022/02/19 12:47:06;;;;;;;7.60;1.88;;;;;;;;;;5075023;28;20056;-46
2022/02/19 12:49:33;;;;;;;5.25;1.05;;;16.70;97.00;;;;;;5075225;28;20094;-48
2022/02/19 12:52:02;;;;;;;7.05;1.35;;;16.70;96.90;;;;;;5074996;28;20046;-45
2022/02/19 12:54:35;;;;;;;6.15;1.00;;;16.60;94.40;;;;;;5074741;28;20104;-45
2022/02/19 12:57:01;;;;;;;6.50;1.60;;;;;;;;;;5075291;28;20024;-46
2022/02/19 12:59:35;;;;;;;5.25;1.25;;;16.60;93.90;;;;;;5074767;28;20098;-46
2022/02/19 13:02:03;;;;;;;5.95;1.02;;;16.50;95.50;;;;;;5074476;28;20063;-48
2022/02/19 13:04:29;;;;;;;5.35;1.50;;;;;;;;;;5074680;28;20020;-47
2022/02/19 13:06:55;;;;;;;9.02;1.73;;;;;;;;;;5074888;28;20063;-47
2022/02/19 13:09:21;;;;;;;3.85;1.35;;;16.50;93.80;;;;;;5074557;28;20056;-47
2022/02/19 13:11:50;;;;;;;4.28;1.35;;;16.50;95.10;;;;;;5074696;28;20016;-48
2022/02/19 13:14:16;;;;;;;4.60;1.27;;;;;;;;;;5074419;28;20064;-48
2022/02/19 13:17:15;;;;;;;4.82;1.17;;;16.80;95.10;;;;;;5074352;28;20129;-48
2022/02/19 13:19:41;;;;;;;2.92;0.70;;;16.70;94.10;;;;;;5055788;28;20050;-46
2022/02/19 13:22:10;;;;;;;2.05;0.93;;;16.50;95.30;;;;;;5074380;28;20101;-45
2022/02/19 13:24:41;;;;;;;7.78;1.42;;;16.60;95.80;;;;;;5074301;28;20032;-47
2022/02/19 13:27:20;;;;;;;6.20;1.42;;;16.50;93.40;;;;;;5074298;28;20059;-47
2022/02/19 13:29:51;;;;;;;4.80;1.58;;;16.50;93.70;;;;;;5074116;28;20033;-46
2022/02/19 13:32:42;;;;;;;12.00;2.47;;;16.60;93.90;;;;;;5074199;28;20024;-46
2022/02/19 13:35:24;;;;;;;3.00;0.90;;;16.40;96.60;;;;;;5074334;28;20033;-46
2022/02/19 13:37:50;;;;;;;3.10;0.80;;;;;;;;;;5074184;28;20430;-48
2022/02/19 13:40:18;;;;;;;3.30;1.17;;;16.30;97.00;;;;;;5074016;28;20066;-45
2022/02/19 13:42:55;;;;;;;3.50;1.10;;;16.40;94.70;;;;;;5074121;28;20421;-45
2022/02/19 13:45:43;;;;;;;2.45;0.82;;;16.40;94.90;;;;;;5073953;28;20029;-45
2022/02/19 13:48:10;;;;;;;2.38;0.90;;;;;;;;;;5073860;28;20029;-45
2022/02/19 13:50:46;;;;;;;2.55;0.88;;;16.20;95.00;;;;;;5073972;28;20037;-44
2022/02/19 13:53:14;;;;;;;4.45;1.00;;;16.30;97.50;;;;;;5073733;28;20032;-45
2022/02/19 13:55:43;;;;;;;4.35;0.88;;;16.30;97.40;;;;;;5073569;28;20096;-45
2022/02/19 13:58:10;;;;;;;2.65;0.60;;;;;;;;;;5073640;28;20112;-45
2022/02/19 14:00:36;;;;;;;3.88;0.73;;;;;;;;;;5073575;28;20043;-45
2022/02/19 14:03:02;;;;;;;2.70;0.93;;;;;;;;;;5073187;28;20052;-45
2022/02/19 14:05:47;;;;;;;2.45;0.63;;;16.10;79.40;;;;;;5073746;28;20069;-46
2022/02/19 14:08:15;;;;;;;6.47;0.80;;;16.10;86.60;;;;;;5073517;28;20028;-45
2022/02/19 14:11:09;;;;;;;2.97;1.00;;;16.20;80.40;;;;;;5073509;28;20032;-46
2022/02/19 14:13:35;;;;;;;2.13;0.90;;;;;;;;;;5060107;28;20369;-47
2022/02/19 14:16:01;;;;;;;3.63;0.90;;;;;;;;;;5073130;28;20682;-47
2022/02/19 14:18:33;;;;;;;1.83;0.70;;;16.40;87.50;;;;;;5073262;28;20365;-46
2022/02/19 14:20:59;;;;;;;1.83;0.70;;;;;;;;;;5073109;28;20032;-45
2022/02/19 14:23:27;;;;;;;3.53;0.60;;;16.60;88.30;;;;;;5073140;28;20021;-46